sensor_id;sensor_type;location;lat;lon;timestamp;temperature;humidity
18575;DHT22;9417;16.484;102.872;2023-07-24T00:01:14;24.50;98.60
18575;DHT22;9417;16.484;102.872;2023-07-24T00:03:21;24.50;99.20
18575;DHT22;9417;16.484;102.872;2023-07-24T00:05:29;24.40;99.90
18575;DHT22;9417;16.484;102.872;2023-07-24T00:07:35;24.30;99.90
18575;DHT22;9417;16.484;102.872;2023-07-24T00:09:41;24.30;99.90
18575;DHT22;9417;16.484;102.872;2023-07-24T00:11:48;24.30;99.90
18575;DHT22;9417;16.484;102.872;2023-07-24T00:13:54;24.30;99.90
18575;DHT22;9417;16.484;102.872;2023-07-24T00:16:00;24.20;99.90
18575;DHT22;9417;16.484;102.872;2023-07-24T00:18:11;24.30;99.90
18575;DHT22;9417;16.484;102.872;2023-07-24T00:20:18;24.30;99.90
18575;DHT22;9417;16.484;102.872;2023-07-24T00:22:26;24.30;99.90
18575;DHT22;9417;16.484;102.872;2023-07-24T00:24:32;24.20;99.90
18575;DHT22;9417;16.484;102.872;2023-07-24T00:26:39;24.20;99.90
18575;DHT22;9417;16.484;102.872;2023-07-24T00:28:45;24.00;99.90
18575;DHT22;9417;16.484;102.872;2023-07-24T00:30:52;24.00;99.90
18575;DHT22;9417;16.484;102.872;2023-07-24T00:32:58;23.90;99.90
18575;DHT22;9417;16.484;102.872;2023-07-24T00:35:03;23.90;99.90
18575;DHT22;9417;16.484;102.872;2023-07-24T00:37:10;23.80;99.90
18575;DHT22;9417;16.484;102.872;2023-07-24T00:39:18;23.80;99.90
18575;DHT22;9417;16.484;102.872;2023-07-24T00:41:24;23.70;99.90
18575;DHT22;9417;16.484;102.872;2023-07-24T00:43:30;23.70;99.90
18575;DHT22;9417;16.484;102.872;2023-07-24T00:45:37;23.70;99.90
18575;DHT22;9417;16.484;102.872;2023-07-24T00:47:43;23.70;99.90
18575;DHT22;9417;16.484;102.872;2023-07-24T00:49:50;23.70;99.90
18575;DHT22;9417;16.484;102.872;2023-07-24T00:51:56;23.70;99.90
18575;DHT22;9417;16.484;102.872;2023-07-24T00:54:02;23.80;99.90
18575;DHT22;9417;16.484;102.872;2023-07-24T00:56:11;23.80;99.90
18575;DHT22;9417;16.484;102.872;2023-07-24T00:58:17;23.80;99.90
18575;DHT22;9417;16.484;102.872;2023-07-24T01:00:25;23.80;99.90
18575;DHT22;9417;16.484;102.872;2023-07-24T01:02:31;23.90;99.90
18575;DHT22;9417;16.484;102.872;2023-07-24T01:04:38;23.90;99.90
18575;DHT22;9417;16.484;102.872;2023-07-24T01:06:44;23.90;99.90
18575;DHT22;9417;16.484;102.872;2023-07-24T01:08:51;23.90;99.90
18575;DHT22;9417;16.484;102.872;2023-07-24T01:10:59;23.90;99.90
18575;DHT22;9417;16.484;102.872;2023-07-24T01:13:14;23.90;99.90
18575;DHT22;9417;16.484;102.872;2023-07-24T01:15:20;23.90;99.90
18575;DHT22;9417;16.484;102.872;2023-07-24T01:17:28;23.90;99.90
18575;DHT22;9417;16.484;102.872;2023-07-24T01:19:41;23.90;99.90
18575;DHT22;9417;16.484;102.872;2023-07-24T01:21:52;23.90;99.90
18575;DHT22;9417;16.484;102.872;2023-07-24T01:24:05;23.90;99.90
18575;DHT22;9417;16.484;102.872;2023-07-24T01:26:17;23.90;99.90
18575;DHT22;9417;16.484;102.872;2023-07-24T01:28:26;23.90;99.90
18575;DHT22;9417;16.484;102.872;2023-07-24T01:30:32;24.00;99.90
18575;DHT22;9417;16.484;102.872;2023-07-24T01:32:38;24.00;99.90
18575;DHT22;9417;16.484;102.872;2023-07-24T01:34:44;24.00;99.90
18575;DHT22;9417;16.484;102.872;2023-07-24T01:36:50;24.00;99.90
18575;DHT22;9417;16.484;102.872;2023-07-24T01:38:57;24.10;99.90
18575;DHT22;9417;16.484;102.872;2023-07-24T01:41:04;24.10;99.90
18575;DHT22;9417;16.484;102.872;2023-07-24T01:43:14;24.10;99.90
18575;DHT22;9417;16.484;102.872;2023-07-24T01:45:20;24.10;99.90
18575;DHT22;9417;16.484;102.872;2023-07-24T01:47:27;24.10;99.90
18575;DHT22;9417;16.484;102.872;2023-07-24T01:49:33;24.10;99.90
18575;DHT22;9417;16.484;102.872;2023-07-24T01:51:38;24.20;99.90
18575;DHT22;9417;16.484;102.872;2023-07-24T01:53:45;24.20;99.90
18575;DHT22;9417;16.484;102.872;2023-07-24T01:55:51;24.20;99.90
18575;DHT22;9417;16.484;102.872;2023-07-24T01:57:58;24.10;99.90
18575;DHT22;9417;16.484;102.872;2023-07-24T02:00:06;24.10;99.90
18575;DHT22;9417;16.484;102.872;2023-07-24T02:02:13;24.20;99.90
18575;DHT22;9417;16.484;102.872;2023-07-24T02:04:19;24.20;99.90
18575;DHT22;9417;16.484;102.872;2023-07-24T02:06:26;24.30;99.90
18575;DHT22;9417;16.484;102.872;2023-07-24T02:08:33;24.30;99.90
18575;DHT22;9417;16.484;102.872;2023-07-24T02:10:39;24.40;99.90
18575;DHT22;9417;16.484;102.872;2023-07-24T02:12:46;24.40;99.90
18575;DHT22;9417;16.484;102.872;2023-07-24T02:14:52;24.50;99.90
18575;DHT22;9417;16.484;102.872;2023-07-24T02:17:00;24.50;99.90
18575;DHT22;9417;16.484;102.872;2023-07-24T02:19:07;24.60;99.90
18575;DHT22;9417;16.484;102.872;2023-07-24T02:21:13;24.50;99.90
18575;DHT22;9417;16.484;102.872;2023-07-24T02:23:21;24.60;99.90
18575;DHT22;9417;16.484;102.872;2023-07-24T02:25:27;24.60;99.90
18575;DHT22;9417;16.484;102.872;2023-07-24T02:27:34;24.60;99.90
18575;DHT22;9417;16.484;102.872;2023-07-24T02:29:40;24.60;99.90
18575;DHT22;9417;16.484;102.872;2023-07-24T02:31:47;24.70;99.90
18575;DHT22;9417;16.484;102.872;2023-07-24T02:33:56;24.80;99.90
18575;DHT22;9417;16.484;102.872;2023-07-24T02:36:02;24.90;99.90
18575;DHT22;9417;16.484;102.872;2023-07-24T02:38:09;24.90;99.90
18575;DHT22;9417;16.484;102.872;2023-07-24T02:40:15;24.90;99.90
18575;DHT22;9417;16.484;102.872;2023-07-24T02:42:22;25.00;99.90
18575;DHT22;9417;16.484;102.872;2023-07-24T02:44:28;25.00;99.90
18575;DHT22;9417;16.484;102.872;2023-07-24T02:46:33;25.00;99.90
18575;DHT22;9417;16.484;102.872;2023-07-24T02:48:39;25.10;99.90
18575;DHT22;9417;16.484;102.872;2023-07-24T02:50:49;25.10;99.90
18575;DHT22;9417;16.484;102.872;2023-07-24T02:52:55;25.10;99.90
18575;DHT22;9417;16.484;102.872;2023-07-24T02:55:01;25.20;99.90
18575;DHT22;9417;16.484;102.872;2023-07-24T02:57:08;25.20;99.90
18575;DHT22;9417;16.484;102.872;2023-07-24T02:59:14;25.30;99.90
18575;DHT22;9417;16.484;102.872;2023-07-24T03:01:21;25.40;99.90
18575;DHT22;9417;16.484;102.872;2023-07-24T03:03:28;25.40;99.90
18575;DHT22;9417;16.484;102.872;2023-07-24T03:05:34;25.50;99.90
18575;DHT22;9417;16.484;102.872;2023-07-24T03:07:42;25.50;99.90
18575;DHT22;9417;16.484;102.872;2023-07-24T03:09:50;25.60;99.90
18575;DHT22;9417;16.484;102.872;2023-07-24T03:11:57;25.70;99.90
18575;DHT22;9417;16.484;102.872;2023-07-24T03:14:03;25.70;99.90
18575;DHT22;9417;16.484;102.872;2023-07-24T03:16:09;25.80;99.90
18575;DHT22;9417;16.484;102.872;2023-07-24T03:18:15;25.90;99.10
18575;DHT22;9417;16.484;102.872;2023-07-24T03:20:22;26.00;98.20
18575;DHT22;9417;16.484;102.872;2023-07-24T03:22:28;26.10;97.80
18575;DHT22;9417;16.484;102.872;2023-07-24T03:24:36;26.20;98.00
18575;DHT22;9417;16.484;102.872;2023-07-24T03:26:42;26.20;97.40
18575;DHT22;9417;16.484;102.872;2023-07-24T03:28:49;26.30;97.10
18575;DHT22;9417;16.484;102.872;2023-07-24T03:30:56;26.40;96.70
18575;DHT22;9417;16.484;102.872;2023-07-24T03:33:01;26.40;96.70
18575;DHT22;9417;16.484;102.872;2023-07-24T03:35:08;26.30;96.20
18575;DHT22;9417;16.484;102.872;2023-07-24T03:37:15;26.30;95.80
18575;DHT22;9417;16.484;102.872;2023-07-24T03:39:22;26.40;94.50
18575;DHT22;9417;16.484;102.872;2023-07-24T03:41:30;26.50;94.10
18575;DHT22;9417;16.484;102.872;2023-07-24T03:43:36;26.60;94.00
18575;DHT22;9417;16.484;102.872;2023-07-24T03:45:42;26.60;93.80
18575;DHT22;9417;16.484;102.872;2023-07-24T03:47:49;26.70;94.60
18575;DHT22;9417;16.484;102.872;2023-07-24T03:49:55;26.80;95.00
18575;DHT22;9417;16.484;102.872;2023-07-24T03:52:02;26.90;94.60
18575;DHT22;9417;16.484;102.872;2023-07-24T03:54:07;27.00;91.50
18575;DHT22;9417;16.484;102.872;2023-07-24T03:56:14;27.00;92.00
18575;DHT22;9417;16.484;102.872;2023-07-24T03:58:22;27.00;92.70
18575;DHT22;9417;16.484;102.872;2023-07-24T04:00:28;27.00;93.30
18575;DHT22;9417;16.484;102.872;2023-07-24T04:02:34;27.00;93.80
18575;DHT22;9417;16.484;102.872;2023-07-24T04:04:41;27.00;93.40
18575;DHT22;9417;16.484;102.872;2023-07-24T04:06:47;27.00;93.50
18575;DHT22;9417;16.484;102.872;2023-07-24T04:08:53;27.00;90.00
18575;DHT22;9417;16.484;102.872;2023-07-24T04:11:00;27.20;91.90
18575;DHT22;9417;16.484;102.872;2023-07-24T04:13:08;27.40;92.40
18575;DHT22;9417;16.484;102.872;2023-07-24T04:15:16;27.50;91.10
18575;DHT22;9417;16.484;102.872;2023-07-24T04:17:23;27.60;91.30
18575;DHT22;9417;16.484;102.872;2023-07-24T04:19:30;27.70;89.90
18575;DHT22;9417;16.484;102.872;2023-07-24T04:21:36;27.80;90.40
18575;DHT22;9417;16.484;102.872;2023-07-24T04:23:42;27.90;90.50
18575;DHT22;9417;16.484;102.872;2023-07-24T04:25:49;28.00;89.10
18575;DHT22;9417;16.484;102.872;2023-07-24T04:27:55;28.00;89.10
18575;DHT22;9417;16.484;102.872;2023-07-24T04:30:02;28.00;88.50
18575;DHT22;9417;16.484;102.872;2023-07-24T04:32:10;28.00;88.20
18575;DHT22;9417;16.484;102.872;2023-07-24T04:34:16;28.10;88.90
18575;DHT22;9417;16.484;102.872;2023-07-24T04:36:22;28.20;88.40
18575;DHT22;9417;16.484;102.872;2023-07-24T04:38:30;28.30;88.20
18575;DHT22;9417;16.484;102.872;2023-07-24T04:40:36;28.40;86.10
18575;DHT22;9417;16.484;102.872;2023-07-24T04:42:42;28.40;86.30
18575;DHT22;9417;16.484;102.872;2023-07-24T04:44:49;28.40;85.80
18575;DHT22;9417;16.484;102.872;2023-07-24T04:46:55;28.40;85.70
18575;DHT22;9417;16.484;102.872;2023-07-24T04:49:04;28.40;84.40
18575;DHT22;9417;16.484;102.872;2023-07-24T04:51:10;28.50;83.10
18575;DHT22;9417;16.484;102.872;2023-07-24T04:53:16;28.50;82.50
18575;DHT22;9417;16.484;102.872;2023-07-24T04:55:23;28.60;81.40
18575;DHT22;9417;16.484;102.872;2023-07-24T04:57:29;28.60;82.20
18575;DHT22;9417;16.484;102.872;2023-07-24T04:59:35;28.70;80.70
18575;DHT22;9417;16.484;102.872;2023-07-24T05:01:42;28.70;81.80
18575;DHT22;9417;16.484;102.872;2023-07-24T05:03:48;28.60;81.70
18575;DHT22;9417;16.484;102.872;2023-07-24T05:05:55;28.60;82.50
18575;DHT22;9417;16.484;102.872;2023-07-24T05:08:02;28.70;83.60
18575;DHT22;9417;16.484;102.872;2023-07-24T05:10:09;28.80;83.40
18575;DHT22;9417;16.484;102.872;2023-07-24T05:12:17;28.90;83.40
18575;DHT22;9417;16.484;102.872;2023-07-24T05:14:23;29.10;84.10
18575;DHT22;9417;16.484;102.872;2023-07-24T05:16:29;29.10;84.10
18575;DHT22;9417;16.484;102.872;2023-07-24T05:18:35;29.20;83.10
18575;DHT22;9417;16.484;102.872;2023-07-24T05:20:43;29.20;83.00
18575;DHT22;9417;16.484;102.872;2023-07-24T05:22:52;29.30;83.20
18575;DHT22;9417;16.484;102.872;2023-07-24T05:24:58;29.40;83.70
18575;DHT22;9417;16.484;102.872;2023-07-24T05:27:05;29.50;82.90
18575;DHT22;9417;16.484;102.872;2023-07-24T05:29:11;29.70;82.30
18575;DHT22;9417;16.484;102.872;2023-07-24T05:31:18;29.80;82.60
18575;DHT22;9417;16.484;102.872;2023-07-24T05:33:24;29.90;81.50
18575;DHT22;9417;16.484;102.872;2023-07-24T05:35:30;30.00;80.20
18575;DHT22;9417;16.484;102.872;2023-07-24T05:37:37;30.00;80.50
18575;DHT22;9417;16.484;102.872;2023-07-24T05:39:45;30.10;81.30
18575;DHT22;9417;16.484;102.872;2023-07-24T05:41:52;30.10;81.60
18575;DHT22;9417;16.484;102.872;2023-07-24T05:43:58;30.10;80.70
18575;DHT22;9417;16.484;102.872;2023-07-24T05:46:05;30.10;79.60
18575;DHT22;9417;16.484;102.872;2023-07-24T05:48:11;30.20;80.30
18575;DHT22;9417;16.484;102.872;2023-07-24T05:50:17;30.20;78.40
18575;DHT22;9417;16.484;102.872;2023-07-24T05:52:24;30.30;78.50
18575;DHT22;9417;16.484;102.872;2023-07-24T05:54:31;30.40;78.30
18575;DHT22;9417;16.484;102.872;2023-07-24T05:56:39;30.40;76.20
18575;DHT22;9417;16.484;102.872;2023-07-24T05:58:45;30.50;74.90
18575;DHT22;9417;16.484;102.872;2023-07-24T06:00:51;30.50;72.70
18575;DHT22;9417;16.484;102.872;2023-07-24T06:02:56;30.60;74.40
18575;DHT22;9417;16.484;102.872;2023-07-24T06:05:03;30.60;73.50
18575;DHT22;9417;16.484;102.872;2023-07-24T06:07:09;30.60;74.30
18575;DHT22;9417;16.484;102.872;2023-07-24T06:09:16;30.70;73.80
18575;DHT22;9417;16.484;102.872;2023-07-24T06:11:24;30.70;71.20
18575;DHT22;9417;16.484;102.872;2023-07-24T06:13:32;30.70;71.50
18575;DHT22;9417;16.484;102.872;2023-07-24T06:15:38;30.80;73.50
18575;DHT22;9417;16.484;102.872;2023-07-24T06:17:45;30.90;74.40
18575;DHT22;9417;16.484;102.872;2023-07-24T06:19:56;30.90;74.40
18575;DHT22;9417;16.484;102.872;2023-07-24T06:22:02;31.00;74.70
18575;DHT22;9417;16.484;102.872;2023-07-24T06:24:09;30.90;74.30
18575;DHT22;9417;16.484;102.872;2023-07-24T06:26:16;30.90;69.90
18575;DHT22;9417;16.484;102.872;2023-07-24T06:28:22;31.00;69.60
18575;DHT22;9417;16.484;102.872;2023-07-24T06:30:30;30.90;70.80
18575;DHT22;9417;16.484;102.872;2023-07-24T06:32:37;30.80;70.40
18575;DHT22;9417;16.484;102.872;2023-07-24T06:34:43;30.90;70.10
18575;DHT22;9417;16.484;102.872;2023-07-24T06:36:50;30.90;71.50
18575;DHT22;9417;16.484;102.872;2023-07-24T06:38:54;31.00;71.20
18575;DHT22;9417;16.484;102.872;2023-07-24T06:41:01;31.00;70.20
18575;DHT22;9417;16.484;102.872;2023-07-24T06:43:07;31.00;71.10
18575;DHT22;9417;16.484;102.872;2023-07-24T06:45:14;31.10;70.60
18575;DHT22;9417;16.484;102.872;2023-07-24T06:47:22;31.10;73.70
18575;DHT22;9417;16.484;102.872;2023-07-24T06:49:28;31.10;71.90
18575;DHT22;9417;16.484;102.872;2023-07-24T06:51:34;31.10;73.10
18575;DHT22;9417;16.484;102.872;2023-07-24T06:53:41;31.10;70.30
18575;DHT22;9417;16.484;102.872;2023-07-24T06:55:47;31.10;69.60
18575;DHT22;9417;16.484;102.872;2023-07-24T06:57:53;31.10;69.50
18575;DHT22;9417;16.484;102.872;2023-07-24T06:59:58;31.20;70.00
18575;DHT22;9417;16.484;102.872;2023-07-24T07:02:05;31.20;68.10
18575;DHT22;9417;16.484;102.872;2023-07-24T07:04:13;31.30;68.40
18575;DHT22;9417;16.484;102.872;2023-07-24T07:06:19;31.30;70.40
18575;DHT22;9417;16.484;102.872;2023-07-24T07:08:27;31.40;71.10
18575;DHT22;9417;16.484;102.872;2023-07-24T07:10:33;31.40;67.60
18575;DHT22;9417;16.484;102.872;2023-07-24T07:12:40;31.50;67.10
18575;DHT22;9417;16.484;102.872;2023-07-24T07:14:46;31.60;67.90
18575;DHT22;9417;16.484;102.872;2023-07-24T07:16:52;31.70;68.70
18575;DHT22;9417;16.484;102.872;2023-07-24T07:18:59;31.70;67.50
18575;DHT22;9417;16.484;102.872;2023-07-24T07:21:07;31.70;68.00
18575;DHT22;9417;16.484;102.872;2023-07-24T07:23:13;31.70;66.90
18575;DHT22;9417;16.484;102.872;2023-07-24T07:25:20;31.70;67.30
18575;DHT22;9417;16.484;102.872;2023-07-24T07:27:26;31.80;67.70
18575;DHT22;9417;16.484;102.872;2023-07-24T07:29:33;31.90;67.80
18575;DHT22;9417;16.484;102.872;2023-07-24T07:31:39;31.90;66.00
18575;DHT22;9417;16.484;102.872;2023-07-24T07:33:46;31.90;67.50
18575;DHT22;9417;16.484;102.872;2023-07-24T07:35:52;31.90;69.50
18575;DHT22;9417;16.484;102.872;2023-07-24T07:38:03;32.00;69.20
18575;DHT22;9417;16.484;102.872;2023-07-24T07:40:10;32.00;68.70
18575;DHT22;9417;16.484;102.872;2023-07-24T07:42:16;32.10;68.00
18575;DHT22;9417;16.484;102.872;2023-07-24T07:44:22;32.10;68.40
18575;DHT22;9417;16.484;102.872;2023-07-24T07:46:27;32.10;68.80
18575;DHT22;9417;16.484;102.872;2023-07-24T07:48:34;32.10;69.30
18575;DHT22;9417;16.484;102.872;2023-07-24T07:50:40;32.10;66.50
18575;DHT22;9417;16.484;102.872;2023-07-24T07:52:49;32.10;68.60
18575;DHT22;9417;16.484;102.872;2023-07-24T07:54:57;32.00;68.80
18575;DHT22;9417;16.484;102.872;2023-07-24T07:57:04;32.00;68.20
18575;DHT22;9417;16.484;102.872;2023-07-24T07:59:10;32.00;68.00
18575;DHT22;9417;16.484;102.872;2023-07-24T08:01:16;32.10;69.00
18575;DHT22;9417;16.484;102.872;2023-07-24T08:03:23;32.20;68.20
18575;DHT22;9417;16.484;102.872;2023-07-24T08:05:29;32.20;69.10
18575;DHT22;9417;16.484;102.872;2023-07-24T08:07:36;32.20;69.40
18575;DHT22;9417;16.484;102.872;2023-07-24T08:09:42;32.10;67.00
18575;DHT22;9417;16.484;102.872;2023-07-24T08:11:50;32.10;68.40
18575;DHT22;9417;16.484;102.872;2023-07-24T08:13:56;32.10;67.20
18575;DHT22;9417;16.484;102.872;2023-07-24T08:16:03;32.00;67.30
18575;DHT22;9417;16.484;102.872;2023-07-24T08:18:10;31.80;67.80
18575;DHT22;9417;16.484;102.872;2023-07-24T08:20:16;31.60;69.10
18575;DHT22;9417;16.484;102.872;2023-07-24T08:22:22;31.50;72.30
18575;DHT22;9417;16.484;102.872;2023-07-24T08:24:29;31.30;71.80
18575;DHT22;9417;16.484;102.872;2023-07-24T08:26:35;31.10;71.90
18575;DHT22;9417;16.484;102.872;2023-07-24T08:28:44;31.00;72.20
18575;DHT22;9417;16.484;102.872;2023-07-24T08:30:56;30.80;71.20
18575;DHT22;9417;16.484;102.872;2023-07-24T08:33:07;30.80;71.70
18575;DHT22;9417;16.484;102.872;2023-07-24T08:35:14;30.80;74.20
18575;DHT22;9417;16.484;102.872;2023-07-24T08:37:20;30.80;74.80
18575;DHT22;9417;16.484;102.872;2023-07-24T08:39:26;30.80;75.70
18575;DHT22;9417;16.484;102.872;2023-07-24T08:41:34;30.80;76.00
18575;DHT22;9417;16.484;102.872;2023-07-24T08:43:41;30.90;75.20
18575;DHT22;9417;16.484;102.872;2023-07-24T08:45:49;31.00;75.30
18575;DHT22;9417;16.484;102.872;2023-07-24T08:47:56;31.20;75.20
18575;DHT22;9417;16.484;102.872;2023-07-24T08:50:03;31.30;75.10
18575;DHT22;9417;16.484;102.872;2023-07-24T08:52:09;31.50;74.90
18575;DHT22;9417;16.484;102.872;2023-07-24T08:54:29;31.70;73.80
18575;DHT22;9417;16.484;102.872;2023-07-24T08:56:36;31.70;72.70
18575;DHT22;9417;16.484;102.872;2023-07-24T08:58:44;31.80;73.80
18575;DHT22;9417;16.484;102.872;2023-07-24T09:00:52;31.90;74.30
18575;DHT22;9417;16.484;102.872;2023-07-24T09:02:57;31.90;73.70
18575;DHT22;9417;16.484;102.872;2023-07-24T09:05:04;31.80;73.10
18575;DHT22;9417;16.484;102.872;2023-07-24T09:07:11;31.80;73.20
18575;DHT22;9417;16.484;102.872;2023-07-24T09:09:18;31.90;73.20
18575;DHT22;9417;16.484;102.872;2023-07-24T09:11:24;32.00;73.40
18575;DHT22;9417;16.484;102.872;2023-07-24T09:13:30;32.00;72.60
18575;DHT22;9417;16.484;102.872;2023-07-24T09:15:40;32.00;73.20
18575;DHT22;9417;16.484;102.872;2023-07-24T09:17:51;32.00;74.20
18575;DHT22;9417;16.484;102.872;2023-07-24T09:19:58;32.00;73.90
18575;DHT22;9417;16.484;102.872;2023-07-24T09:22:11;32.00;75.10
18575;DHT22;9417;16.484;102.872;2023-07-24T09:24:21;32.00;73.90
18575;DHT22;9417;16.484;102.872;2023-07-24T09:26:27;31.90;74.20
18575;DHT22;9417;16.484;102.872;2023-07-24T09:28:34;31.80;75.10
18575;DHT22;9417;16.484;102.872;2023-07-24T09:30:42;31.70;75.60
18575;DHT22;9417;16.484;102.872;2023-07-24T09:32:53;31.60;75.00
18575;DHT22;9417;16.484;102.872;2023-07-24T09:34:59;31.50;74.40
18575;DHT22;9417;16.484;102.872;2023-07-24T09:37:08;31.40;73.60
18575;DHT22;9417;16.484;102.872;2023-07-24T09:39:15;31.30;73.70
18575;DHT22;9417;16.484;102.872;2023-07-24T09:41:28;31.30;75.90
18575;DHT22;9417;16.484;102.872;2023-07-24T09:43:35;31.20;75.90
18575;DHT22;9417;16.484;102.872;2023-07-24T09:45:43;31.10;78.10
18575;DHT22;9417;16.484;102.872;2023-07-24T09:47:48;30.90;80.50
18575;DHT22;9417;16.484;102.872;2023-07-24T09:50:07;30.60;80.20
18575;DHT22;9417;16.484;102.872;2023-07-24T09:52:13;30.40;82.20
18575;DHT22;9417;16.484;102.872;2023-07-24T09:54:21;30.30;83.10
18575;DHT22;9417;16.484;102.872;2023-07-24T09:56:29;30.20;82.40
18575;DHT22;9417;16.484;102.872;2023-07-24T09:58:53;30.20;84.20
18575;DHT22;9417;16.484;102.872;2023-07-24T10:01:00;30.10;83.60
18575;DHT22;9417;16.484;102.872;2023-07-24T10:03:08;30.10;84.90
18575;DHT22;9417;16.484;102.872;2023-07-24T10:05:16;30.00;86.20
18575;DHT22;9417;16.484;102.872;2023-07-24T10:07:23;30.00;86.50
18575;DHT22;9417;16.484;102.872;2023-07-24T10:09:30;30.00;86.50
18575;DHT22;9417;16.484;102.872;2023-07-24T10:11:35;29.90;87.40
18575;DHT22;9417;16.484;102.872;2023-07-24T10:13:41;29.90;85.90
18575;DHT22;9417;16.484;102.872;2023-07-24T10:15:48;29.90;85.50
18575;DHT22;9417;16.484;102.872;2023-07-24T10:18:01;29.90;86.00
18575;DHT22;9417;16.484;102.872;2023-07-24T10:20:08;29.80;86.50
18575;DHT22;9417;16.484;102.872;2023-07-24T10:22:18;29.80;87.00
18575;DHT22;9417;16.484;102.872;2023-07-24T10:24:29;29.80;87.00
18575;DHT22;9417;16.484;102.872;2023-07-24T10:26:44;29.90;87.30
18575;DHT22;9417;16.484;102.872;2023-07-24T10:28:50;29.90;87.70
18575;DHT22;9417;16.484;102.872;2023-07-24T10:30:57;29.80;87.40
18575;DHT22;9417;16.484;102.872;2023-07-24T10:33:04;29.80;86.60
18575;DHT22;9417;16.484;102.872;2023-07-24T10:35:11;29.80;86.60
18575;DHT22;9417;16.484;102.872;2023-07-24T10:37:19;29.80;86.80
18575;DHT22;9417;16.484;102.872;2023-07-24T10:39:40;29.80;87.60
18575;DHT22;9417;16.484;102.872;2023-07-24T10:41:47;29.70;87.30
18575;DHT22;9417;16.484;102.872;2023-07-24T10:43:58;29.70;86.30
18575;DHT22;9417;16.484;102.872;2023-07-24T10:46:05;29.70;87.10
18575;DHT22;9417;16.484;102.872;2023-07-24T10:48:12;29.70;87.30
18575;DHT22;9417;16.484;102.872;2023-07-24T10:50:17;29.70;86.60
18575;DHT22;9417;16.484;102.872;2023-07-24T10:52:29;29.70;86.20
18575;DHT22;9417;16.484;102.872;2023-07-24T10:54:36;29.70;87.10
18575;DHT22;9417;16.484;102.872;2023-07-24T10:56:43;29.80;87.00
18575;DHT22;9417;16.484;102.872;2023-07-24T10:58:51;29.80;85.30
18575;DHT22;9417;16.484;102.872;2023-07-24T11:00:57;29.80;86.10
18575;DHT22;9417;16.484;102.872;2023-07-24T11:03:04;29.90;85.60
18575;DHT22;9417;16.484;102.872;2023-07-24T11:05:12;29.90;86.40
18575;DHT22;9417;16.484;102.872;2023-07-24T11:07:18;29.90;86.80
18575;DHT22;9417;16.484;102.872;2023-07-24T11:09:35;29.90;86.50
18575;DHT22;9417;16.484;102.872;2023-07-24T11:11:44;29.90;86.40
18575;DHT22;9417;16.484;102.872;2023-07-24T11:13:50;29.90;85.60
18575;DHT22;9417;16.484;102.872;2023-07-24T11:15:56;29.80;85.10
18575;DHT22;9417;16.484;102.872;2023-07-24T11:18:09;29.80;85.40
18575;DHT22;9417;16.484;102.872;2023-07-24T11:20:15;29.80;86.00
18575;DHT22;9417;16.484;102.872;2023-07-24T11:22:21;29.80;86.40
18575;DHT22;9417;16.484;102.872;2023-07-24T11:24:28;29.80;86.60
18575;DHT22;9417;16.484;102.872;2023-07-24T11:26:36;29.70;85.80
18575;DHT22;9417;16.484;102.872;2023-07-24T11:28:45;29.70;85.90
18575;DHT22;9417;16.484;102.872;2023-07-24T11:30:51;29.70;85.90
18575;DHT22;9417;16.484;102.872;2023-07-24T11:32:57;29.70;86.40
18575;DHT22;9417;16.484;102.872;2023-07-24T11:35:04;29.70;87.30
18575;DHT22;9417;16.484;102.872;2023-07-24T11:37:11;29.70;88.90
18575;DHT22;9417;16.484;102.872;2023-07-24T11:39:21;29.70;89.60
18575;DHT22;9417;16.484;102.872;2023-07-24T11:41:28;29.70;90.30
18575;DHT22;9417;16.484;102.872;2023-07-24T11:43:44;29.60;88.90
18575;DHT22;9417;16.484;102.872;2023-07-24T11:45:52;29.60;88.20
18575;DHT22;9417;16.484;102.872;2023-07-24T11:47:59;29.60;89.00
18575;DHT22;9417;16.484;102.872;2023-07-24T11:50:06;29.50;89.60
18575;DHT22;9417;16.484;102.872;2023-07-24T11:52:12;29.60;89.40
18575;DHT22;9417;16.484;102.872;2023-07-24T11:54:19;29.50;89.60
18575;DHT22;9417;16.484;102.872;2023-07-24T11:56:25;29.50;90.40
18575;DHT22;9417;16.484;102.872;2023-07-24T11:58:31;29.40;90.20
18575;DHT22;9417;16.484;102.872;2023-07-24T12:00:39;29.30;91.20
18575;DHT22;9417;16.484;102.872;2023-07-24T12:02:46;29.30;91.70
18575;DHT22;9417;16.484;102.872;2023-07-24T12:04:55;29.30;91.70
18575;DHT22;9417;16.484;102.872;2023-07-24T12:07:07;29.30;91.30
18575;DHT22;9417;16.484;102.872;2023-07-24T12:09:13;29.30;90.50
18575;DHT22;9417;16.484;102.872;2023-07-24T12:11:20;29.20;90.40
18575;DHT22;9417;16.484;102.872;2023-07-24T12:13:27;29.20;90.50
18575;DHT22;9417;16.484;102.872;2023-07-24T12:15:35;29.20;90.60
18575;DHT22;9417;16.484;102.872;2023-07-24T12:17:43;29.20;90.50
18575;DHT22;9417;16.484;102.872;2023-07-24T12:19:50;29.10;90.20
18575;DHT22;9417;16.484;102.872;2023-07-24T12:21:56;29.10;90.10
18575;DHT22;9417;16.484;102.872;2023-07-24T12:24:03;29.10;90.00
18575;DHT22;9417;16.484;102.872;2023-07-24T12:26:09;29.10;90.20
18575;DHT22;9417;16.484;102.872;2023-07-24T12:28:16;29.10;89.90
18575;DHT22;9417;16.484;102.872;2023-07-24T12:30:22;29.00;89.20
18575;DHT22;9417;16.484;102.872;2023-07-24T12:32:29;29.00;89.10
18575;DHT22;9417;16.484;102.872;2023-07-24T12:34:37;29.00;89.20
18575;DHT22;9417;16.484;102.872;2023-07-24T12:36:43;29.00;89.70
18575;DHT22;9417;16.484;102.872;2023-07-24T12:38:51;28.90;89.90
18575;DHT22;9417;16.484;102.872;2023-07-24T12:40:57;28.90;89.20
18575;DHT22;9417;16.484;102.872;2023-07-24T12:43:04;28.90;87.80
18575;DHT22;9417;16.484;102.872;2023-07-24T12:45:10;28.90;88.30
18575;DHT22;9417;16.484;102.872;2023-07-24T12:47:16;28.90;89.30
18575;DHT22;9417;16.484;102.872;2023-07-24T12:49:23;28.90;89.80
18575;DHT22;9417;16.484;102.872;2023-07-24T12:51:31;28.80;89.90
18575;DHT22;9417;16.484;102.872;2023-07-24T12:53:37;28.90;91.10
18575;DHT22;9417;16.484;102.872;2023-07-24T12:56:00;28.80;91.30
18575;DHT22;9417;16.484;102.872;2023-07-24T12:58:07;28.70;91.60
18575;DHT22;9417;16.484;102.872;2023-07-24T13:00:13;28.80;92.20
18575;DHT22;9417;16.484;102.872;2023-07-24T13:02:19;28.80;92.40
18575;DHT22;9417;16.484;102.872;2023-07-24T13:04:25;28.70;92.20
18575;DHT22;9417;16.484;102.872;2023-07-24T13:06:32;28.70;91.90
18575;DHT22;9417;16.484;102.872;2023-07-24T13:08:39;28.70;91.70
18575;DHT22;9417;16.484;102.872;2023-07-24T13:10:45;28.70;92.20